createdAt,value
2023-02-15T00:02:22.131Z,102337.69
2023-02-15T00:05:23.963Z,102341.19
2023-02-15T00:08:25.768Z,102342.97
2023-02-15T00:11:46.437Z,102349.13
2023-02-15T00:14:48.555Z,102339.50
2023-02-15T00:17:50.277Z,102343.88
2023-02-15T00:20:52.101Z,102344.75
2023-02-15T00:23:53.892Z,102340.34
2023-02-15T00:26:55.714Z,102342.06
2023-02-15T00:29:57.658Z,102345.53
2023-02-15T00:32:59.402Z,102344.66
2023-02-15T00:36:02.205Z,102346.41
2023-02-15T00:39:05.621Z,102348.09
2023-02-15T00:42:07.483Z,102343.62
2023-02-15T00:45:09.907Z,102348.66
2023-02-15T00:48:11.665Z,102345.09
2023-02-15T00:51:13.533Z,102342.56
2023-02-15T00:54:15.326Z,102332.75
2023-02-15T00:57:17.052Z,102338.91
2023-02-15T01:00:18.976Z,102335.50
2023-02-15T01:03:22.177Z,102332.81
2023-02-15T01:06:24.039Z,102333.62
2023-02-15T01:09:25.917Z,102332.75
2023-02-15T01:12:27.846Z,102334.50
2023-02-15T01:15:29.991Z,102336.25
2023-02-15T01:18:32.660Z,102337.06
2023-02-15T01:21:35.508Z,102334.41
2023-02-15T01:24:37.452Z,102331.75
2023-02-15T01:27:39.247Z,102329.94
2023-02-15T01:30:42.399Z,102325.53
2023-02-15T01:33:44.282Z,102322.81
2023-02-15T01:36:46.004Z,102320.94
2023-02-15T01:39:47.726Z,102329.59
2023-02-15T01:42:56.200Z,102333.81
2023-02-15T01:45:58.126Z,102338.09
2023-02-15T01:49:20.991Z,102330.09
2023-02-15T01:52:22.832Z,102333.66
2023-02-15T01:55:26.538Z,102337.06
2023-02-15T01:58:30.103Z,102326.53
2023-02-15T02:01:32.188Z,102326.56
2023-02-15T02:04:42.419Z,102331.78
2023-02-15T02:07:46.027Z,102330.94
2023-02-15T02:10:47.807Z,102336.19
2023-02-15T02:13:51.705Z,102322.97
2023-02-15T02:17:21.518Z,102321.22
2023-02-15T02:20:38.575Z,102324.72
2023-02-15T02:23:58.619Z,102320.91
2023-02-15T02:27:20.614Z,102316.69
2023-02-15T02:30:34.703Z,102316.72
2023-02-15T02:33:52.969Z,102315.84
2023-02-15T02:37:13.064Z,102322.84
2023-02-15T02:40:17.774Z,102323.66
2023-02-15T02:43:50.173Z,102320.22
2023-02-15T02:46:55.464Z,102324.53
2023-02-15T02:50:05.057Z,102326.34
2023-02-15T02:53:07.181Z,102320.22
2023-02-15T02:56:22.817Z,102303.47
2023-02-15T02:59:29.431Z,102317.72
2023-02-15T03:02:36.850Z,102315.84
2023-02-15T03:05:41.243Z,102323.78
2023-02-15T03:08:55.995Z,102330.91
2023-02-15T03:11:57.949Z,102325.13
2023-02-15T03:15:02.090Z,102329.16
2023-02-15T03:18:04.581Z,102335.41
2023-02-15T03:21:07.567Z,102332.22
2023-02-15T03:24:16.518Z,102331.59
2023-02-15T03:27:21.827Z,102339.63
2023-02-15T03:30:24.300Z,102332.94
2023-02-15T03:33:27.824Z,102334.84
2023-02-15T03:36:43.639Z,102329.88
2023-02-15T03:39:45.375Z,102323.88
2023-02-15T03:42:48.738Z,102330.75
2023-02-15T03:45:56.576Z,102332.56
2023-02-15T03:49:11.200Z,102337.06
2023-02-15T03:52:14.255Z,102330.94
2023-02-15T03:55:16.108Z,102329.19
2023-02-15T03:58:36.361Z,102323.06
2023-02-15T04:01:59.821Z,102324.75
2023-02-15T04:05:01.526Z,102314.78
2023-02-15T04:08:03.567Z,102327.09
2023-02-15T04:11:05.364Z,102328.78
2023-02-15T04:14:27.011Z,102332.22
2023-02-15T04:17:28.816Z,102326.06
2023-02-15T04:20:49.194Z,102338.41
2023-02-15T04:24:09.470Z,102326.06
2023-02-15T04:27:11.179Z,102325.22
2023-02-15T04:30:14.387Z,102326.06
2023-02-15T04:33:16.214Z,102323.12
2023-02-15T04:36:17.982Z,102324.13
2023-02-15T04:39:19.757Z,102321.44
2023-02-15T04:42:21.607Z,102322.19
2023-02-15T04:45:23.376Z,102320.47
2023-02-15T04:48:25.200Z,102324.84
2023-02-15T04:51:27.047Z,102331.69
2023-02-15T04:54:28.816Z,102336.78
2023-02-15T04:57:30.630Z,102334.25
2023-02-15T05:00:32.374Z,102333.31
2023-02-15T05:03:34.360Z,102339.44
2023-02-15T05:06:36.221Z,102350.56
2023-02-15T05:09:38.176Z,102347.28
2023-02-15T05:12:40.178Z,102350.81
2023-02-15T05:15:44.640Z,102349.06
2023-02-15T05:18:46.847Z,102343.75
2023-02-15T05:21:48.569Z,102350.81
2023-02-15T05:25:08.720Z,102353.44
2023-02-15T05:28:22.747Z,102356.84
2023-02-15T05:31:24.766Z,102361.22
2023-02-15T05:34:26.762Z,102355.09
2023-02-15T05:37:28.553Z,102355.94
2023-02-15T05:40:30.616Z,102355.87
2023-02-15T05:43:33.119Z,102360.19
2023-02-15T05:46:34.974Z,102358.50
2023-02-15T05:49:37.085Z,102361.06
2023-02-15T05:52:38.840Z,102364.53
2023-02-15T05:55:41.698Z,102361.94
2023-02-15T05:58:43.564Z,102363.59
2023-02-15T06:01:45.558Z,102365.37
2023-02-15T06:04:47.331Z,102373.22
2023-02-15T06:07:49.035Z,102358.50
2023-02-15T06:10:50.833Z,102374.22
2023-02-15T06:13:52.504Z,102379.56
2023-02-15T06:16:54.204Z,102366.53
2023-02-15T06:19:55.931Z,102376.31
2023-02-15T06:22:57.709Z,102381.78
2023-02-15T06:25:59.737Z,102377.66
2023-02-15T06:29:01.625Z,102369.13
2023-02-15T06:32:03.667Z,102331.25
2023-02-15T06:35:05.813Z,102284.16
2023-02-15T06:38:09.704Z,102279.66
2023-02-15T06:41:11.940Z,102246.59
2023-02-15T06:44:13.677Z,102255.41
2023-02-15T06:47:15.595Z,102253.69
2023-02-15T06:50:17.504Z,102206.13
2023-02-15T06:53:19.317Z,102177.59
2023-02-15T06:56:21.028Z,102177.53
2023-02-15T06:59:22.817Z,102187.31
2023-02-15T07:02:24.520Z,102237.31
2023-02-15T07:05:32.627Z,102180.13
2023-02-15T07:08:35.285Z,102180.91
2023-02-15T07:11:56.052Z,102167.69
2023-02-15T07:14:59.262Z,102240.94
2023-02-15T07:18:01.051Z,102216.94
2023-02-15T07:21:03.088Z,102329.28
2023-02-15T07:24:05.019Z,102337.34
2023-02-15T07:27:11.419Z,102336.56
2023-02-15T07:30:16.715Z,102340.94
2023-02-15T07:33:24.816Z,102341.81
2023-02-15T07:36:26.666Z,102348.91
2023-02-15T07:39:28.440Z,102351.59
2023-02-15T07:42:31.710Z,102356.94
2023-02-15T07:45:33.433Z,102380.66
2023-02-15T07:48:35.940Z,102394.59
2023-02-15T07:51:37.723Z,102398.81
2023-02-15T07:54:39.790Z,102382.13
2023-02-15T07:57:45.920Z,102402.13
2023-02-15T08:01:02.653Z,102366.22
2023-02-15T08:04:06.617Z,102366.25
2023-02-15T08:07:08.926Z,102355.66
2023-02-15T08:10:10.796Z,102373.16
2023-02-15T08:13:12.572Z,102372.31
2023-02-15T08:16:14.452Z,102346.03
2023-02-15T08:19:20.663Z,102353.16
2023-02-15T08:22:22.565Z,102331.25
2023-02-15T08:25:24.254Z,102334.81
2023-02-15T08:28:26.051Z,102326.00
2023-02-15T08:31:28.617Z,102331.31
2023-02-15T08:34:32.563Z,102318.94
2023-02-15T08:37:34.370Z,102317.22
2023-02-15T08:40:36.193Z,102318.09
2023-02-15T08:43:39.054Z,102317.19
2023-02-15T08:46:42.726Z,102332.19
2023-02-15T08:49:44.783Z,102307.44
2023-02-15T08:52:47.063Z,102316.31
2023-02-15T08:55:59.377Z,102296.62
2023-02-15T08:59:01.512Z,102278.56
2023-02-15T09:02:04.174Z,102273.13
2023-02-15T09:05:06.308Z,102261.31
2023-02-15T09:08:08.051Z,102251.44
2023-02-15T09:11:23.821Z,102260.13
2023-02-15T09:14:27.125Z,102244.84
2023-02-15T09:17:28.866Z,102227.66
2023-02-15T09:20:30.700Z,102234.22
2023-02-15T09:23:32.501Z,102224.16
2023-02-15T09:26:37.664Z,102210.66
2023-02-15T09:29:39.597Z,102222.03
2023-02-15T09:32:41.387Z,102201.88
2023-02-15T09:35:43.088Z,102194.75
2023-02-15T09:38:46.674Z,102195.41
2023-02-15T09:42:25.461Z,102188.22
2023-02-15T09:45:49.156Z,102177.44
2023-02-15T09:48:54.822Z,102177.50
2023-02-15T09:52:08.673Z,102160.50
2023-02-15T09:55:30.214Z,102172.34
2023-02-15T09:58:44.482Z,102170.38
2023-02-15T10:01:50.285Z,102167.91
2023-02-15T10:05:37.040Z,102153.41
2023-02-15T10:08:57.203Z,102153.28
2023-02-15T10:12:36.634Z,102144.38
2023-02-15T10:15:58.246Z,102139.47
2023-02-15T10:19:28.545Z,102137.38
2023-02-15T10:22:42.594Z,102134.59
2023-02-15T10:25:48.270Z,102115.59
2023-02-15T10:28:50.443Z,102121.91
2023-02-15T10:31:59.401Z,102120.63
2023-02-15T10:35:20.624Z,102122.38
2023-02-15T10:38:31.426Z,102111.66
2023-02-15T10:42:07.633Z,102111.37
2023-02-15T10:45:12.256Z,102094.13
2023-02-15T10:48:19.904Z,102075.06
2023-02-15T10:51:50.294Z,102079.03
2023-02-15T10:55:13.800Z,102091.44
2023-02-15T10:58:30.702Z,102065.44
2023-02-15T11:01:54.065Z,102051.84
2023-02-15T11:05:09.911Z,102062.31
2023-02-15T11:08:12.452Z,102044.47
2023-02-15T11:11:23.416Z,102034.88
2023-02-15T11:14:40.987Z,102050.59
2023-02-15T11:17:45.622Z,102056.22
2023-02-15T11:21:18.623Z,102039.44
2023-02-15T11:24:21.806Z,102036.06
2023-02-15T11:27:26.885Z,102037.75
2023-02-15T11:30:45.798Z,102031.94
2023-02-15T11:33:52.720Z,102034.03
2023-02-15T11:36:56.489Z,102009.28
2023-02-15T11:39:58.265Z,102021.44
2023-02-15T11:43:03.378Z,102013.37
2023-02-15T11:46:05.778Z,102013.84
2023-02-15T11:49:31.700Z,101997.84
2023-02-15T11:52:33.597Z,101989.75
2023-02-15T11:55:36.159Z,102012.91
2023-02-15T11:58:46.381Z,102004.66
2023-02-15T12:01:48.313Z,101994.72
2023-02-15T12:04:55.345Z,101998.75
2023-02-15T12:08:02.966Z,101991.00
2023-02-15T12:11:13.840Z,101997.44
2023-02-15T12:14:18.490Z,101994.38
2023-02-15T12:17:23.543Z,101983.00
2023-02-15T12:20:35.454Z,101978.97
2023-02-15T12:23:44.810Z,101965.53
2023-02-15T12:26:57.296Z,101956.97
2023-02-15T12:30:11.268Z,101949.66
2023-02-15T12:33:25.109Z,101933.62
2023-02-15T12:36:31.222Z,101937.19
2023-02-15T12:39:33.639Z,101941.84
2023-02-15T12:42:45.760Z,101944.09
2023-02-15T12:45:47.770Z,101923.81
2023-02-15T12:49:08.858Z,101927.16
2023-02-15T12:52:21.105Z,101921.03
2023-02-15T12:55:26.497Z,101919.53
2023-02-15T12:58:33.277Z,101905.72
2023-02-15T13:01:34.960Z,101906.97
2023-02-15T13:04:37.474Z,101909.00
2023-02-15T13:07:39.365Z,101900.97
2023-02-15T13:10:54.249Z,101899.16
2023-02-15T13:13:59.332Z,101896.91
2023-02-15T13:17:02.719Z,101909.00
2023-02-15T13:20:18.065Z,101896.81
2023-02-15T13:23:28.635Z,101891.37
2023-02-15T13:26:32.546Z,101882.62
2023-02-15T13:29:37.245Z,101870.03
2023-02-15T13:32:41.866Z,101872.75
2023-02-15T13:35:53.250Z,101875.28
2023-02-15T13:39:03.058Z,101877.19
2023-02-15T13:42:15.767Z,101874.69
2023-02-15T13:45:26.572Z,101883.69
2023-02-15T13:48:56.592Z,101879.56
2023-02-15T13:52:26.684Z,101870.06
2023-02-15T13:55:45.680Z,101863.31
2023-02-15T13:58:57.010Z,101868.28
2023-02-15T14:02:19.821Z,101875.38
2023-02-15T14:05:33.850Z,101880.81
2023-02-15T14:08:54.696Z,101876.38
2023-02-15T14:11:59.267Z,101859.69
2023-02-15T14:15:25.474Z,101869.66
2023-02-15T14:18:51.198Z,101863.56
2023-02-15T14:21:59.263Z,101865.38
2023-02-15T14:25:18.790Z,101873.41
2023-02-15T14:28:36.376Z,101878.66
2023-02-15T14:31:42.336Z,101883.19
2023-02-15T14:34:56.521Z,101878.47
2023-02-15T14:38:10.395Z,101875.53
2023-02-15T14:41:32.372Z,101883.66
2023-02-15T14:44:39.046Z,101878.50
2023-02-15T14:47:49.852Z,101886.91
2023-02-15T14:50:51.700Z,101873.66
2023-02-15T14:53:53.730Z,101883.75
2023-02-15T14:57:18.749Z,101881.28
2023-02-15T15:00:33.295Z,101882.53
2023-02-15T15:03:36.543Z,101889.22
2023-02-15T15:06:40.865Z,101878.13
2023-02-15T15:09:44.699Z,101894.87
2023-02-15T15:12:51.665Z,101898.59
2023-02-15T15:15:54.141Z,101897.75
2023-02-15T15:18:56.469Z,101901.63
2023-02-15T15:22:04.486Z,101903.72
2023-02-15T15:25:11.848Z,101919.06
2023-02-15T15:28:42.727Z,101916.00
2023-02-15T15:31:49.080Z,101922.78
2023-02-15T15:35:13.279Z,101936.91
2023-02-15T15:38:37.179Z,101931.25
2023-02-15T15:41:50.068Z,101927.91
2023-02-15T15:45:24.234Z,101937.12
2023-02-15T15:48:38.858Z,101934.00
2023-02-15T15:51:42.419Z,101937.84
2023-02-15T15:54:45.759Z,101936.50
2023-02-15T15:57:51.402Z,101953.09
2023-02-15T16:00:58.111Z,101958.00
2023-02-15T16:04:00.543Z,101961.87
2023-02-15T16:07:14.723Z,101971.16
2023-02-15T16:10:24.401Z,101974.09
2023-02-15T16:13:26.700Z,101977.94
2023-02-15T16:16:30.070Z,101975.47
2023-02-15T16:19:36.215Z,101993.56
2023-02-15T16:22:39.299Z,102013.56
2023-02-15T16:25:41.084Z,102003.13
2023-02-15T16:29:02.554Z,102016.56
2023-02-15T16:32:07.304Z,102017.72
2023-02-15T16:35:14.921Z,102015.12
2023-02-15T16:38:17.815Z,102014.44
2023-02-15T16:41:26.711Z,102015.44
2023-02-15T16:44:33.890Z,102022.66
2023-02-15T16:47:41.320Z,102014.84
2023-02-15T16:50:48.768Z,102022.97
2023-02-15T16:53:53.066Z,102017.81
2023-02-15T16:56:55.746Z,102023.25
2023-02-15T17:00:04.303Z,102037.53
2023-02-15T17:03:12.814Z,102042.94
2023-02-15T17:06:27.238Z,102028.91
2023-02-15T17:09:29.313Z,102034.28
2023-02-15T17:12:57.241Z,102041.44
2023-02-15T17:15:59.266Z,102039.69
2023-02-15T17:19:03.694Z,102045.06
2023-02-15T17:22:25.156Z,102048.66
2023-02-15T17:25:36.841Z,102048.72
2023-02-15T17:28:39.237Z,102047.03
2023-02-15T17:31:41.721Z,102050.66
2023-02-15T17:34:44.082Z,102055.94
2023-02-15T17:37:51.137Z,102056.87
2023-02-15T17:40:53.006Z,102055.12
2023-02-15T17:43:55.199Z,102044.56
2023-02-15T17:46:59.957Z,102052.53
2023-02-15T17:50:03.827Z,102051.66
2023-02-15T17:53:08.870Z,102048.13
2023-02-15T17:56:11.138Z,102043.75
2023-02-15T17:59:15.176Z,102042.88
2023-02-15T18:02:36.614Z,102045.53
2023-02-15T18:05:57.182Z,102045.56
2023-02-15T18:09:18.422Z,102041.16
2023-02-15T18:12:31.648Z,102041.13
2023-02-15T18:15:33.814Z,102049.09
2023-02-15T18:18:35.987Z,102051.75
2023-02-15T18:21:40.517Z,102046.47
2023-02-15T18:24:44.094Z,102056.13
2023-02-15T18:27:48.728Z,102044.69
2023-02-15T18:30:51.177Z,102047.31
2023-02-15T18:33:58.817Z,102047.28
2023-02-15T18:37:02.509Z,102051.69
2023-02-15T18:40:07.565Z,102054.31
2023-02-15T18:43:13.064Z,102057.78
2023-02-15T18:46:15.497Z,102064.75
2023-02-15T18:49:17.680Z,102073.56
2023-02-15T18:52:26.375Z,102049.75
2023-02-15T18:55:29.093Z,102060.34
2023-02-15T18:58:31.107Z,102058.59
2023-02-15T19:01:33.270Z,102051.56
2023-02-15T19:04:36.442Z,102053.28
2023-02-15T19:07:39.125Z,102058.56
2023-02-15T19:10:41.254Z,102033.87
2023-02-15T19:13:48.822Z,102048.00
2023-02-15T19:16:50.935Z,102049.69
2023-02-15T19:19:53.200Z,102045.28
2023-02-15T19:22:56.629Z,102054.88
2023-02-15T19:25:59.247Z,102038.22
2023-02-15T19:29:02.532Z,102043.47
2023-02-15T19:32:04.958Z,102046.06
2023-02-15T19:35:20.177Z,102042.53
2023-02-15T19:38:35.249Z,102045.03
2023-02-15T19:41:38.541Z,102048.53
2023-02-15T19:44:43.649Z,102045.03
2023-02-15T19:47:48.204Z,102039.81
2023-02-15T19:50:50.564Z,102041.56
2023-02-15T19:53:54.081Z,102048.38
2023-02-15T19:56:57.464Z,102049.28
2023-02-15T20:00:12.331Z,102056.34
2023-02-15T20:03:22.256Z,102055.31
2023-02-15T20:06:24.333Z,102062.38
2023-02-15T20:09:30.589Z,102067.37
2023-02-15T20:12:32.856Z,102065.66
2023-02-15T20:15:35.809Z,102056.78
2023-02-15T20:18:38.090Z,102049.53
2023-02-15T20:21:41.367Z,102048.88
2023-02-15T20:24:43.463Z,102048.91
2023-02-15T20:27:45.908Z,102042.84
2023-02-15T20:30:48.382Z,102038.47
2023-02-15T20:33:51.491Z,102041.06
2023-02-15T20:36:54.900Z,102039.31
2023-02-15T20:39:56.983Z,102040.81
2023-02-15T20:42:58.838Z,102035.53
2023-02-15T20:46:01.405Z,102043.44
2023-02-15T20:49:03.909Z,102040.69
2023-02-15T20:52:19.301Z,102038.94
2023-02-15T20:55:27.017Z,102035.53
2023-02-15T20:58:30.528Z,102028.50
2023-02-15T21:01:32.688Z,102036.47
2023-02-15T21:04:35.880Z,102034.69
2023-02-15T21:07:38.386Z,102029.47
2023-02-15T21:10:45.252Z,102032.97
2023-02-15T21:13:47.913Z,102036.47
2023-02-15T21:16:50.911Z,102030.37
2023-02-15T21:19:53.044Z,102040.00
2023-02-15T21:22:55.869Z,102031.19
2023-02-15T21:25:58.012Z,102033.81
2023-02-15T21:28:59.768Z,102034.56
2023-02-15T21:32:03.858Z,102035.44
2023-02-15T21:35:06.311Z,102031.91
2023-02-15T21:38:14.271Z,102042.34
2023-02-15T21:41:42.629Z,102030.06
2023-02-15T21:45:03.022Z,102031.81
2023-02-15T21:48:05.141Z,102023.91
2023-02-15T21:51:26.314Z,102022.12
2023-02-15T21:54:28.318Z,102035.03
2023-02-15T21:57:30.179Z,102031.56
2023-02-15T22:00:32.725Z,102024.56
2023-02-15T22:03:36.632Z,102028.09
2023-02-15T22:06:38.436Z,102029.84
2023-02-15T22:09:40.170Z,102031.59
2023-02-15T22:12:42.973Z,102031.50
2023-02-15T22:15:47.191Z,102034.13
2023-02-15T22:18:49.151Z,102029.72
2023-02-15T22:21:50.949Z,102038.22
2023-02-15T22:24:52.872Z,102032.19
2023-02-15T22:27:54.903Z,102034.84
2023-02-15T22:30:57.367Z,102025.12
2023-02-15T22:33:59.161Z,102035.75
2023-02-15T22:37:01.235Z,102032.19
2023-02-15T22:40:03.601Z,102040.09
2023-02-15T22:43:06.140Z,102017.16
2023-02-15T22:46:14.382Z,102025.12
2023-02-15T22:49:16.347Z,102037.16
2023-02-15T22:52:18.899Z,102035.44
2023-02-15T22:55:24.174Z,102032.66
2023-02-15T22:58:27.510Z,102025.59
2023-02-15T23:01:34.872Z,102033.63
2023-02-15T23:04:36.641Z,102036.25
2023-02-15T23:07:38.642Z,102035.41
2023-02-15T23:10:42.201Z,102041.50
2023-02-15T23:13:44.074Z,102038.00
2023-02-15T23:16:45.911Z,102039.66
2023-02-15T23:19:47.863Z,102035.25
2023-02-15T23:22:49.907Z,102033.44
2023-02-15T23:25:54.714Z,102029.09
2023-02-15T23:28:59.354Z,102017.69
2023-02-15T23:32:01.316Z,102019.44
2023-02-15T23:35:14.130Z,102018.50
2023-02-15T23:38:21.015Z,102015.84
2023-02-15T23:41:26.378Z,102022.00
2023-02-15T23:44:28.537Z,102017.59
2023-02-15T23:47:51.169Z,102013.19
2023-02-15T23:50:53.198Z,102006.13
2023-02-15T23:53:55.052Z,102002.59
2023-02-15T23:57:00.127Z,102004.34
